Non è richiesta alcuna attenzione speciale.   -   Non ci sono nessun avvisi

Nearby METAR Reports

 

LEZL - Sevilla, Spain
Distance from station: ENE 8km
Dati ricevuti: 21/06/2018 11:30
Sereno
Sereno
 Vento da N
Vento: N 6 km/h
Temperatura: 26°C
P.to Rugiada: 15°C
Umidità: 51%
Barometro: 1016 hPa
Summary: Sereno
Visibility: greater than 10 km
2018/06/21 09:30 LEZL 210930Z 35003KT CAVOK 26/15 Q1016 NOSIG
LEMO - Morón, Spain
Distance from station: SE 43km
Dati ricevuti: 21/06/2018 12:00
Sereno
Sereno
 Vento da O
Vento: O 7 km/h
Temperatura: 26°C
P.to Rugiada: 17°C
Umidità: 58%
Barometro: 1017 hPa
Summary: Sereno
Visibility: greater than 10 km
2018/06/21 10:00 LEMO 211000Z 28004KT 210V360 CAVOK 26/17 Q1017 NOSIG
LEJR - Jeréz, Spain
Distance from station: S 71km
Dati ricevuti: 21/06/2018 12:00
Few Clouds
Few Clouds
 Vento da ONO
Vento: ONO 7 km/h
Temperatura: 25°C
P.to Rugiada: 17°C
Umidità: 61%
Barometro: 1017 hPa
Clouds: Few Clouds
Visibility: 10 km
Cloud details: Few Clouds 1158 m
2018/06/21 10:00 LEJR 211000Z 29004KT 230V010 9999 FEW038 25/17 Q1017
 
LERT - Rota, Spain
Distance from station: SSO 89km
Dati ricevuti: 21/06/2018 11:00
Few Clouds
Few Clouds
 Vento da S
Vento: S 15 km/h
Temperatura: 23°C
P.to Rugiada: 18°C
Umidità: 74%
Barometro: 1017 hPa
Clouds: Few Clouds
Visibility: 10 km
Cloud details: Few Clouds 1067 m
2018/06/21 09:00 LERT 210900Z 19008KT 150V240 9999 FEW035 23/18 Q1017 NOSIG
LEMG - Málaga, Spain
Distance from station: ESE 157km
Dati ricevuti: 21/06/2018 11:30
Sereno
Sereno
 Vento da SSE
Vento: SSE 17 km/h
Temperatura: 25°C
P.to Rugiada: 16°C
Umidità: 57%
Barometro: 1017 hPa
Summary: Sereno
Visibility: greater than 10 km
2018/06/21 09:30 LEMG 210930Z 16009KT 130V200 CAVOK 25/16 Q1017 NOSIG
LEBA - Córdoba, Spain
Distance from station: ENE 115km
Dati ricevuti: 21/06/2018 11:30
Sereno
Sereno
 Vento da E
Vento: E 15 km/h
Temperatura: 28°C
Indice di Calore: 28°C
P.to Rugiada: 14°C
Umidità: 42%
Barometro: 1016 hPa
Summary: Sereno
Visibility: greater than 10 km
2018/06/21 09:30 LEBA 210930Z 09008KT 060V140 CAVOK 28/14 Q1016
 
LEGR - Granada, Spain
Distance from station: E 198km
Dati ricevuti: 21/06/2018 11:30
Sereno
Sereno
 Vento da varies
Vento: varies 2 km/h
Temperatura: 27°C
P.to Rugiada: 9°C
Umidità: 32%
Barometro: 1019 hPa
Summary: Sereno
Visibility: greater than 10 km
2018/06/21 09:30 LEGR 210930Z VRB01KT CAVOK 27/09 Q1019
LEAM - Almería, Spain
Distance from station: E 326km
Dati ricevuti: 21/06/2018 11:30
Sereno
Sereno
 Vento da SO
Vento: SO 11 km/h
Temperatura: 28°C
Indice di Calore: 28°C
P.to Rugiada: 14°C
Umidità: 42%
Barometro: 1016 hPa
Summary: Sereno
Visibility: greater than 10 km
2018/06/21 09:30 LEAM 210930Z 22006KT 180V250 CAVOK 28/14 Q1016
LEMD - Madrid/Barajas, Spain
Distance from station: NNE 402km
Dati ricevuti: 21/06/2018 11:30
Sereno
Sereno
 Vento da SSE
Vento: SSE 9 km/h
Temperatura: 28°C
P.to Rugiada: 8°C
Umidità: 28%
Barometro: 1020 hPa
Summary: Sereno
Visibility: greater than 10 km
2018/06/21 09:30 LEMD 210930Z 16005KT 120V240 CAVOK 28/08 Q1020 NOSIG
 
LEVD - Valladolid, Spain
Distance from station: N 492km
Dati ricevuti: 21/06/2018 11:30
Parz. nuvoloso
Parz. nuvoloso
 Vento da NE
Vento: NE 9 km/h
Temperatura: 20°C
P.to Rugiada: 16°C
Umidità: 78%
Barometro: 1021 hPa
Clouds: Parz. nuvoloso
Visibility: 10 km
Cloud details: Parz. nuvoloso 1219 m
2018/06/21 09:30 LEVD 210930Z 04005KT 010V070 9999 SCT040 20/16 Q1021
LEBL - Barcelona, Spain
Distance from station: NE 816km
Dati ricevuti: 21/06/2018 11:30
Sereno
Sereno
 Vento da SSE
Vento: SSE 15 km/h
Temperatura: 25°C
P.to Rugiada: 17°C
Umidità: 61%
Barometro: 1018 hPa
Summary: Sereno
Visibility: greater than 10 km
2018/06/21 09:30 LEBL 210930Z 16008KT 130V190 CAVOK 25/17 Q1018 NOSIG
LEVC - Valencia, Spain
Distance from station: ENE 535km
Dati ricevuti: 21/06/2018 11:30
Sereno
Sereno
 Vento da varies
Vento: varies 2 km/h
Temperatura: 29°C
P.to Rugiada: 12°C
Umidità: 35%
Barometro: 1018 hPa
Summary: Sereno
Visibility: greater than 10 km
2018/06/21 09:30 LEVC 210930Z VRB01KT CAVOK 29/12 Q1018 NOSIG